createdAt,value
2019-01-02T00:04:17.797Z,14.93
2019-01-02T00:09:21.227Z,17.15
2019-01-02T00:14:25.269Z,19.23
2019-01-02T00:19:28.911Z,17.75
2019-01-02T00:24:32.757Z,13.45
2019-01-02T00:29:52.911Z,12.40
2019-01-02T00:34:56.547Z,13.97
2019-01-02T00:39:59.920Z,12.15
2019-01-02T00:45:04.152Z,15.53
2019-01-02T00:50:09.979Z,12.75
2019-01-02T00:55:13.794Z,15.77
2019-01-02T01:00:23.144Z,13.08
2019-01-02T01:05:26.617Z,18.82
2019-01-02T01:10:30.051Z,14.07
2019-01-02T01:15:33.568Z,12.75
2019-01-02T01:20:37.907Z,11.80
2019-01-02T01:25:41.228Z,13.95
2019-01-02T01:30:44.596Z,16.57
2019-01-02T01:35:51.388Z,15.98
2019-01-02T01:40:54.923Z,11.68
2019-01-02T01:45:58.674Z,29.67
2019-01-02T01:51:02.314Z,11.65
2019-01-02T01:56:05.610Z,14.80
2019-01-02T02:01:08.851Z,17.15
2019-01-02T02:06:12.238Z,15.67
2019-01-02T02:11:15.886Z,14.33
2019-01-02T02:16:19.387Z,17.57
2019-01-02T02:21:22.785Z,19.83
2019-01-02T02:26:26.670Z,23.10
2019-01-02T02:31:30.076Z,15.70
2019-01-02T02:36:33.840Z,14.63
2019-01-02T02:41:37.511Z,14.07
2019-01-02T02:46:41.366Z,13.70
2019-01-02T02:51:44.769Z,14.97
2019-01-02T02:56:48.607Z,12.87
2019-01-02T03:01:52.464Z,16.37
2019-01-02T03:06:56.618Z,15.15
2019-01-02T03:12:00.407Z,15.85
2019-01-02T03:17:04.057Z,14.73
2019-01-02T03:22:07.804Z,14.67
2019-01-02T03:27:11.756Z,14.78
2019-01-02T03:32:15.157Z,12.53
2019-01-02T03:37:19.046Z,16.25
2019-01-02T03:42:22.541Z,16.03
2019-01-02T03:47:26.052Z,14.20
2019-01-02T03:52:29.388Z,15.40
2019-01-02T03:57:32.828Z,15.03
2019-01-02T04:02:36.083Z,14.00
2019-01-02T04:07:41.163Z,13.90
2019-01-02T04:12:44.397Z,15.68
2019-01-02T04:17:48.348Z,18.67
2019-01-02T04:22:51.779Z,18.85
2019-01-02T04:27:55.105Z,18.87
2019-01-02T04:32:58.449Z,16.07
2019-01-02T04:38:01.801Z,20.87
2019-01-02T04:43:05.190Z,26.30
2019-01-02T04:48:08.588Z,30.72
2019-01-02T04:53:12.260Z,38.25
2019-01-02T04:58:15.993Z,53.07
2019-01-02T05:03:19.310Z,50.50
2019-01-02T05:08:22.761Z,31.50
2019-01-02T05:13:26.043Z,49.10
2019-01-02T05:18:29.464Z,26.62
2019-01-02T05:23:34.639Z,27.17
2019-01-02T05:28:38.026Z,45.12
2019-01-02T05:33:41.286Z,35.23
2019-01-02T05:38:44.865Z,42.50
2019-01-02T05:43:48.321Z,29.07
2019-01-02T05:48:51.954Z,37.67
2019-01-02T05:53:55.259Z,35.87
2019-01-02T05:58:59.614Z,26.77
2019-01-02T06:04:03.214Z,27.63
2019-01-02T06:09:06.778Z,23.87
2019-01-02T06:14:10.407Z,38.27
2019-01-02T06:19:14.766Z,28.53
2019-01-02T06:24:18.208Z,26.33
2019-01-02T06:29:21.550Z,30.57
2019-01-02T06:34:25.134Z,39.27
2019-01-02T06:39:28.416Z,35.75
2019-01-02T06:44:31.777Z,49.80
2019-01-02T06:49:35.583Z,41.15
2019-01-02T06:54:39.058Z,26.30
2019-01-02T06:59:42.374Z,50.67
2019-01-02T07:04:45.737Z,26.10
2019-01-02T07:09:49.205Z,28.95
2019-01-02T07:14:52.561Z,26.60
2019-01-02T07:19:56.270Z,31.62
2019-01-02T07:24:59.602Z,23.15
2019-01-02T07:30:03.963Z,27.98
2019-01-02T07:35:48.322Z,23.00
2019-01-02T07:41:40.637Z,29.00
2019-01-02T07:47:14.348Z,20.97
2019-01-02T07:53:13.441Z,19.52
2019-01-02T07:58:47.391Z,18.92
2019-01-02T08:04:28.305Z,22.25
2019-01-02T08:10:16.567Z,23.02
2019-01-02T08:15:44.380Z,48.83
2019-01-02T08:21:24.618Z,46.77
2019-01-02T08:27:12.098Z,47.10
2019-01-02T08:32:59.520Z,40.90
2019-01-02T08:38:45.223Z,43.98
2019-01-02T08:44:08.133Z,47.93
2019-01-02T08:50:14.410Z,60.48
2019-01-02T08:55:32.149Z,50.80
2019-01-02T09:01:09.467Z,22.95
2019-01-02T09:06:58.798Z,22.37
2019-01-02T09:12:42.228Z,22.20
2019-01-02T09:18:30.048Z,26.00
2019-01-02T09:24:30.431Z,24.37
2019-01-02T09:30:20.011Z,22.30
2019-01-02T09:36:01.878Z,22.55
2019-01-02T09:41:58.881Z,24.18
2019-01-02T09:47:51.657Z,22.20
2019-01-02T09:53:51.453Z,18.57
2019-01-02T09:59:35.574Z,21.60
2019-01-02T10:05:32.848Z,23.83
2019-01-02T10:11:29.204Z,25.88
2019-01-02T10:17:07.166Z,24.05
2019-01-02T10:22:44.802Z,31.30
2019-01-02T10:28:44.813Z,31.12
2019-01-02T10:34:25.432Z,28.65
2019-01-02T10:40:15.060Z,30.62
2019-01-02T10:45:45.612Z,30.57
2019-01-02T10:51:38.723Z,29.05
2019-01-02T10:57:31.736Z,24.25
2019-01-02T11:03:22.858Z,30.70
2019-01-02T11:09:09.721Z,35.20
2019-01-02T11:14:52.124Z,26.20
2019-01-02T11:20:35.574Z,20.48
2019-01-02T11:26:21.034Z,25.25
2019-01-02T11:32:04.513Z,24.70
2019-01-02T11:37:47.137Z,25.25
2019-01-02T11:43:22.362Z,26.77
2019-01-02T11:48:26.590Z,29.85
2019-01-02T11:53:30.549Z,27.37
2019-01-02T11:58:34.628Z,19.05
2019-01-02T12:03:38.876Z,27.67
2019-01-02T12:08:42.594Z,27.90
2019-01-02T12:13:45.998Z,26.68
2019-01-02T12:18:49.326Z,23.07
2019-01-02T12:23:53.628Z,23.00
2019-01-02T12:28:57.035Z,21.70
2019-01-02T12:34:03.745Z,25.50
2019-01-02T12:39:07.358Z,32.42
2019-01-02T12:44:10.797Z,28.25
2019-01-02T12:49:14.249Z,29.92
2019-01-02T12:54:17.912Z,31.27
2019-01-02T12:59:25.150Z,31.68
2019-01-02T13:04:59.632Z,31.27
2019-01-02T13:10:38.403Z,31.40
2019-01-02T13:16:12.753Z,30.70
2019-01-02T13:21:35.173Z,63.25
2019-01-02T13:27:09.766Z,36.35
2019-01-02T13:32:57.822Z,36.83
2019-01-02T13:38:45.823Z,30.97
2019-01-02T13:44:33.523Z,32.17
2019-01-02T13:50:00.547Z,15.70
2019-01-02T13:55:08.337Z,28.55
2019-01-02T14:00:11.853Z,12.45
2019-01-02T14:05:19.683Z,13.60
2019-01-02T14:10:23.486Z,10.50
2019-01-02T14:15:27.360Z,23.07
2019-01-02T14:20:30.678Z,17.05
2019-01-02T14:25:34.254Z,12.65
2019-01-02T14:30:38.114Z,20.05
2019-01-02T14:35:41.839Z,8.78
2019-01-02T14:40:45.129Z,16.05
2019-01-02T14:45:48.906Z,18.73
2019-01-02T14:50:52.240Z,20.32
2019-01-02T14:55:55.737Z,14.60
2019-01-02T15:00:59.157Z,14.83
2019-01-02T15:06:02.669Z,15.72
2019-01-02T15:11:08.358Z,22.58
2019-01-02T15:16:11.483Z,14.43
2019-01-02T15:21:14.952Z,11.22
2019-01-02T15:26:18.290Z,13.08
2019-01-02T15:31:22.091Z,42.62
2019-01-02T15:36:26.338Z,21.52
2019-01-02T15:41:29.771Z,19.90
2019-01-02T15:46:33.314Z,21.15
2019-01-02T15:51:36.779Z,12.00
2019-01-02T15:56:40.183Z,15.13
2019-01-02T16:01:43.666Z,11.90
2019-01-02T16:06:50.769Z,14.65
2019-01-02T16:11:54.648Z,21.30
2019-01-02T16:16:58.214Z,17.25
2019-01-02T16:22:03.994Z,13.38
2019-01-02T16:27:07.702Z,10.93
2019-01-02T16:32:11.439Z,15.63
2019-01-02T16:37:14.905Z,12.70
2019-01-02T16:42:18.387Z,10.20
2019-01-02T16:47:26.264Z,15.32
2019-01-02T16:52:29.694Z,9.83
2019-01-02T16:57:39.891Z,8.48
2019-01-02T17:02:44.782Z,11.38
2019-01-02T17:07:51.053Z,9.55
2019-01-02T17:12:54.665Z,9.23
2019-01-02T17:17:58.409Z,12.43
2019-01-02T17:23:01.762Z,13.48
2019-01-02T17:28:05.493Z,9.35
2019-01-02T17:33:09.517Z,7.37
2019-01-02T17:38:15.791Z,9.08
2019-01-02T17:43:19.530Z,9.95
2019-01-02T17:48:23.923Z,9.00
2019-01-02T17:53:27.330Z,14.20
2019-01-02T17:58:30.685Z,8.35
2019-01-02T18:03:34.344Z,10.60
2019-01-02T18:08:37.820Z,10.40
2019-01-02T18:13:41.438Z,13.43
2019-01-02T18:18:44.971Z,7.20
2019-01-02T18:23:50.888Z,6.28
2019-01-02T18:28:54.268Z,6.75
2019-01-02T18:33:57.658Z,12.40
2019-01-02T18:39:01.020Z,9.80
2019-01-02T18:44:05.188Z,13.25
2019-01-02T18:49:08.539Z,10.10
2019-01-02T18:54:11.981Z,8.20
2019-01-02T18:59:15.557Z,9.68
2019-01-02T19:04:19.074Z,11.30
2019-01-02T19:09:22.815Z,8.15
2019-01-02T19:14:27.149Z,8.45
2019-01-02T19:19:30.712Z,8.00
2019-01-02T19:24:34.058Z,11.33
2019-01-02T19:29:37.457Z,8.63
2019-01-02T19:34:40.911Z,8.65
2019-01-02T19:39:44.290Z,10.85
2019-01-02T19:44:47.731Z,9.43
2019-01-02T19:49:51.363Z,9.70
2019-01-02T19:54:54.779Z,6.97
2019-01-02T19:59:58.509Z,6.40
2019-01-02T20:05:02.066Z,10.20
2019-01-02T20:10:07.904Z,10.58
2019-01-02T20:15:12.513Z,8.35
2019-01-02T20:20:16.384Z,9.30
2019-01-02T20:25:19.667Z,8.83
2019-01-02T20:30:22.990Z,11.12
2019-01-02T20:35:26.990Z,10.38
2019-01-02T20:40:30.326Z,8.43
2019-01-02T20:45:33.745Z,9.73
2019-01-02T20:50:37.181Z,6.22
2019-01-02T20:55:40.536Z,5.30
2019-01-02T21:00:44.354Z,4.92
2019-01-02T21:05:50.382Z,8.98
2019-01-02T21:10:53.797Z,6.10
2019-01-02T21:15:57.425Z,5.35
2019-01-02T21:21:00.888Z,8.33
2019-01-02T21:26:04.580Z,5.05
2019-01-02T21:31:08.011Z,6.67
2019-01-02T21:36:11.538Z,5.83
2019-01-02T21:41:15.229Z,4.70
2019-01-02T21:46:20.671Z,4.87
2019-01-02T21:51:24.267Z,4.65
2019-01-02T21:56:28.001Z,5.00
2019-01-02T22:01:31.744Z,3.55
2019-01-02T22:06:35.370Z,4.17
2019-01-02T22:11:39.169Z,4.70
2019-01-02T22:16:42.462Z,3.90
2019-01-02T22:21:45.992Z,3.85
2019-01-02T22:26:49.457Z,8.43
2019-01-02T22:31:52.791Z,6.70
2019-01-02T22:36:56.719Z,5.92
2019-01-02T22:42:01.242Z,5.47
2019-01-02T22:47:04.646Z,8.70
2019-01-02T22:52:08.122Z,2.37
2019-01-02T22:57:11.503Z,4.70
2019-01-02T23:02:32.845Z,3.92
2019-01-02T23:07:58.802Z,4.40
2019-01-02T23:13:16.613Z,3.35
2019-01-02T23:18:38.418Z,3.30
2019-01-02T23:24:07.317Z,4.95
2019-01-02T23:29:29.275Z,6.33
2019-01-02T23:35:07.137Z,5.35
2019-01-02T23:40:48.650Z,3.90
2019-01-02T23:46:26.271Z,3.72
2019-01-02T23:51:43.676Z,3.47
2019-01-02T23:57:05.661Z,2.72
